EDT,Max TemperatureF,Mean TemperatureF,Min TemperatureF,Max Dew PointF,MeanDew PointF,Min DewpointF,Max Humidity, Mean Humidity, Min Humidity, Max Sea Level PressureIn, Mean Sea Level PressureIn, Min Sea Level PressureIn, Max VisibilityMiles, Mean VisibilityMiles, Min VisibilityMiles, Max Wind SpeedMPH, Mean Wind SpeedMPH, Max Gust SpeedMPH,PrecipitationIn, CloudCover, Events, WindDirDegrees
2012-9-1,80,72,66,67,65,62,90,76,64,30.19,30.12,30.08,10,10,10,12,8,20,0.00,3,Rain-Thunderstorm,264
2012-9-2,73,68,64,67,65,64,100,91,78,30.14,30.09,30.01,10,7,0,8,3,,0.00,6,Fog-Rain,186
2012-9-3,73,70,66,67,66,64,100,90,78,30.11,30.06,30.00,10,7,1,13,6,18,0.00,6,Rain,139
2012-9-4,79,72,66,68,67,64,100,87,62,30.04,29.95,29.86,10,8,1,15,6,22,0.40,6,Rain-Thunderstorm,202
2012-9-5,79,72,66,68,65,61,100,87,56,29.96,29.90,29.84,10,5,0,9,6,,0.05,6,Fog-Rain,281
2012-9-6,81,72,64,64,62,60,94,72,52,29.96,29.93,29.89,10,10,9,9,3,,0.00,1,,236
2012-9-7,81,71,63,64,61,55,94,73,45,30.00,29.94,29.83,10,9,2,10,6,,0.09,1,Rain-Thunderstorm,218
2012-9-8,69,60,53,63,58,52,100,91,76,29.89,29.75,29.66,10,8,1,22,11,31,0.38,6,Rain,248
2012-9-9,63,56,51,52,50,45,100,83,53,30.05,29.95,29.89,10,9,5,12,7,,0.00,5,,255
2012-9-10,62,54,46,47,44,40,97,71,50,30.23,30.15,30.06,10,10,7,14,7,,0.00,2,,324
2012-9-11,69,56,43,44,40,31,89,58,25,30.35,30.30,30.24,10,10,10,8,3,,0.00,0,,234
2012-9-12,75,64,53,53,48,42,75,60,43,30.38,30.33,30.30,10,10,10,9,5,,0.00,0,,191
2012-9-13,75,65,55,57,53,50,87,67,43,30.38,30.33,30.28,10,10,10,8,4,,0.00,1,,198
2012-9-14,75,65,54,58,53,48,100,74,44,30.29,30.23,30.15,10,10,4,15,7,23,0.04,4,Rain,275
2012-9-15,62,54,46,49,47,45,100,81,59,30.32,30.26,30.20,10,9,0,10,6,17,0.00,3,Fog,306
2012-9-16,66,55,46,47,43,35,96,66,35,30.23,30.17,30.12,10,10,6,7,3,,0.00,0,,281
2012-9-17,72,60,50,58,50,41,93,72,39,30.13,30.04,29.92,10,10,7,15,5,22,0.00,2,Rain,156
2012-9-18,63,56,50,63,57,46,100,93,82,29.90,29.71,29.60,10,7,1,23,11,34,1.09,8,Rain,227
2012-9-19,57,50,45,47,41,34,96,75,45,30.21,30.07,29.91,10,10,10,14,8,20,0.00,4,,309
2012-9-20,69,55,42,50,42,35,77,63,32,30.18,30.10,30.03,10,10,10,13,6,17,0.00,0,,173
2012-9-21,71,63,55,56,52,51,84,70,51,30.04,29.99,29.86,10,10,10,15,7,20,0.00,4,,206
2012-9-22,66,56,46,56,49,40,90,73,59,30.03,29.87,29.80,10,10,10,22,14,31,0.01,6,Rain,235
2012-9-23,55,48,42,42,39,35,90,78,49,30.21,30.12,30.05,10,10,10,16,10,22,0.02,7,,292
2012-9-24,54,46,39,43,37,32,100,75,47,30.26,30.20,30.14,10,9,1,17,6,21,0.19,4,Rain-Thunderstorm,245
2012-9-25,64,52,41,51,40,33,81,60,39,30.17,30.13,30.07,10,10,5,12,7,17,0.02,4,Rain,197
2012-9-26,62,58,55,58,56,52,100,91,80,30.16,30.10,30.05,10,8,2,15,9,24,0.47,8,Rain,221
2012-9-27,64,60,57,61,58,55,100,95,80,30.22,30.16,30.11,10,4,0,9,4,,1.39,8,Fog-Rain,242
2012-9-28,60,52,46,58,51,44,100,88,67,30.11,30.09,30.05,10,6,0,16,7,20,0.10,6,Fog-Rain,277
2012-9-29,57,48,42,46,44,42,100,88,62,30.08,30.03,29.95,10,5,0,10,5,,0.00,4,Fog,313
2012-9-30,52,47,42,47,44,41,100,91,80,29.95,29.90,29.86,10,7,0,14,6,,0.30,6,Fog-Rain-Thunderstorm,236